createdAt,value
2023-03-20T00:01:31.508Z,32.35
2023-03-20T00:04:01.351Z,38.88
2023-03-20T00:06:31.186Z,41.40
2023-03-20T00:09:07.531Z,53.92
2023-03-20T00:11:42.751Z,44.50
2023-03-20T00:14:15.828Z,44.88
2023-03-20T00:16:47.377Z,53.80
2023-03-20T00:19:24.665Z,49.17
2023-03-20T00:21:56.808Z,54.03
2023-03-20T00:24:26.928Z,46.78
2023-03-20T00:26:57.407Z,51.53
2023-03-20T00:29:32.952Z,54.95
2023-03-20T00:32:02.937Z,47.72
2023-03-20T00:34:33.107Z,45.35
2023-03-20T00:37:02.650Z,53.15
2023-03-20T00:39:33.177Z,47.95
2023-03-20T00:42:08.701Z,49.30
2023-03-20T00:44:45.373Z,46.25
2023-03-20T00:47:25.915Z,50.33
2023-03-20T00:49:57.385Z,55.28
2023-03-20T00:52:27.650Z,43.17
2023-03-20T00:54:57.229Z,47.55
2023-03-20T00:57:37.018Z,53.60
2023-03-20T01:00:29.059Z,45.17
2023-03-20T01:03:00.482Z,45.65
2023-03-20T01:05:30.707Z,41.22
2023-03-20T01:08:00.879Z,37.80
2023-03-20T01:10:34.282Z,31.48
2023-03-20T01:13:04.475Z,40.85
2023-03-20T01:15:36.054Z,41.22
2023-03-20T01:18:05.987Z,38.75
2023-03-20T01:20:35.575Z,38.22
2023-03-20T01:23:05.221Z,37.75
2023-03-20T01:25:35.065Z,37.50
2023-03-20T01:28:06.120Z,36.58
2023-03-20T01:30:35.712Z,37.25
2023-03-20T01:33:15.394Z,38.35
2023-03-20T01:35:45.784Z,36.67
2023-03-20T01:38:20.664Z,36.03
2023-03-20T01:41:09.851Z,37.03
2023-03-20T01:43:39.455Z,45.72
2023-03-20T01:46:20.360Z,36.42
2023-03-20T01:48:53.557Z,37.03
2023-03-20T01:51:29.072Z,35.30
2023-03-20T01:54:09.902Z,38.97
2023-03-20T01:56:51.240Z,40.28
2023-03-20T01:59:32.617Z,42.53
2023-03-20T02:02:02.568Z,35.53
2023-03-20T02:04:36.586Z,30.13
2023-03-20T02:07:09.202Z,25.67
2023-03-20T02:09:39.177Z,28.58
2023-03-20T02:12:08.894Z,35.47
2023-03-20T02:14:39.445Z,26.20
2023-03-20T02:17:11.972Z,27.73
2023-03-20T02:19:59.675Z,28.52
2023-03-20T02:22:56.872Z,30.90
2023-03-20T02:25:44.674Z,26.42
2023-03-20T02:29:10.074Z,28.10
2023-03-20T02:32:25.732Z,28.38
2023-03-20T02:35:27.391Z,28.02
2023-03-20T02:37:59.976Z,27.65
2023-03-20T02:40:39.845Z,28.02
2023-03-20T02:43:26.426Z,26.70
2023-03-20T02:46:34.398Z,29.70
2023-03-20T02:49:21.151Z,28.60
2023-03-20T02:52:16.995Z,31.35
2023-03-20T02:55:04.835Z,29.50
2023-03-20T02:58:14.674Z,23.23
2023-03-20T03:01:11.335Z,28.38
2023-03-20T03:03:49.600Z,29.92
2023-03-20T03:06:36.666Z,25.67
2023-03-20T03:09:17.666Z,20.17
2023-03-20T03:11:59.356Z,24.50
2023-03-20T03:14:54.478Z,31.30
2023-03-20T03:17:28.117Z,27.40
2023-03-20T03:22:30.604Z,24.10
2023-03-20T03:25:00.209Z,28.88
2023-03-20T03:27:50.807Z,24.63
2023-03-20T03:30:27.640Z,21.95
2023-03-20T03:33:23.955Z,23.77
2023-03-20T03:35:58.166Z,28.63
2023-03-20T03:38:27.826Z,28.20
2023-03-20T03:41:17.583Z,29.83
2023-03-20T03:44:02.983Z,23.92
2023-03-20T03:46:55.384Z,22.42
2023-03-20T03:49:46.631Z,21.98
2023-03-20T03:52:24.171Z,25.38
2023-03-20T03:54:57.499Z,25.08
2023-03-20T03:57:48.967Z,24.70
2023-03-20T04:00:24.155Z,29.08
2023-03-20T04:02:57.176Z,18.80
2023-03-20T04:05:33.064Z,29.35
2023-03-20T04:08:04.828Z,25.10
2023-03-20T04:10:34.382Z,23.15
2023-03-20T04:13:04.032Z,23.88
2023-03-20T04:15:33.794Z,24.02
2023-03-20T04:18:03.511Z,25.20
2023-03-20T04:20:34.031Z,20.60
2023-03-20T04:23:03.628Z,20.70
2023-03-20T04:25:33.252Z,19.20
2023-03-20T04:28:02.836Z,27.05
2023-03-20T04:30:32.800Z,19.27
2023-03-20T04:33:02.466Z,20.23
2023-03-20T04:35:32.052Z,22.83
2023-03-20T04:38:01.576Z,22.75
2023-03-20T04:40:33.091Z,22.20
2023-03-20T04:43:02.641Z,16.95
2023-03-20T04:45:32.414Z,21.23
2023-03-20T04:48:02.562Z,21.25
2023-03-20T04:50:32.387Z,21.33
2023-03-20T04:53:01.982Z,20.83
2023-03-20T04:55:31.541Z,18.15
2023-03-20T04:58:01.174Z,19.60
2023-03-20T05:00:30.783Z,18.60
2023-03-20T05:03:00.389Z,14.40
2023-03-20T05:05:30.966Z,17.05
2023-03-20T05:08:00.532Z,16.63
2023-03-20T05:10:30.113Z,23.70
2023-03-20T05:12:59.707Z,19.08
2023-03-20T05:15:29.459Z,16.67
2023-03-20T05:17:59.162Z,18.10
2023-03-20T05:20:29.118Z,14.25
2023-03-20T05:22:58.845Z,18.13
2023-03-20T05:25:28.421Z,17.38
2023-03-20T05:27:58.060Z,20.58
2023-03-20T05:30:27.837Z,22.73
2023-03-20T05:32:58.409Z,27.42
2023-03-20T05:35:27.999Z,21.70
2023-03-20T05:37:57.618Z,16.67
2023-03-20T05:40:27.609Z,19.73
2023-03-20T05:42:57.303Z,18.38
2023-03-20T05:45:26.864Z,22.83
2023-03-20T05:47:56.440Z,20.50
2023-03-20T05:50:25.994Z,18.17
2023-03-20T05:52:55.686Z,15.00
2023-03-20T05:55:25.433Z,17.20
2023-03-20T05:57:55.007Z,19.02
2023-03-20T06:00:25.223Z,17.17
2023-03-20T06:02:54.957Z,22.02
2023-03-20T06:05:24.587Z,16.20
2023-03-20T06:07:54.196Z,24.42
